Time;durP1;ratioP1;P1;durP2;ratioP2;P2;SDS_P1;SDS_P2;PMS_P1;PMS_P2;Temp;Humidity;BMP_temperature;BMP_pressure;BME280_temperature;BME280_humidity;BME280_pressure;Samples;Min_cycle;Max_cycle;Signal;HPM_P1;HPM_P2
2022/03/26 00:00:40;;;;;;;19.65;10.95;;;;;;;;;;5115626;27;20193;-82
2022/03/26 00:03:08;;;;;;;17.60;9.38;;;;;;;;;;5122517;27;20130;-82
2022/03/26 00:05:36;;;;;;;18.08;9.32;;;;;;;;;;5120934;27;20036;-82
2022/03/26 00:08:02;;;;;;;18.35;9.77;;;;;;;;;;5128233;27;20047;-83
2022/03/26 00:10:29;;;;;;;23.98;11.50;;;;;;;;;;5121138;27;20131;-82
2022/03/26 00:12:57;;;;;;;19.80;10.38;;;;;;;;;;5119679;27;20101;-82
2022/03/26 00:15:24;;;;;;;18.95;9.15;;;;;;;;;;5118058;27;20055;-82
2022/03/26 00:17:50;;;;;;;21.75;10.25;;;;;;;;;;5120566;27;20123;-81
2022/03/26 00:20:17;;;;;;;22.65;11.88;;;;;;;;;;5121969;27;20134;-82
2022/03/26 00:22:45;;;;;;;17.42;9.52;;;;;;;;;;5119490;27;20131;-82
2022/03/26 00:25:13;;;;;;;25.77;11.50;;;;;;;;;;5123987;27;20490;-81
2022/03/26 00:27:40;;;;;;;20.77;11.00;;;;;;;;;;5124328;27;20069;-82
2022/03/26 00:30:08;;;;;;;17.88;10.93;;;;;;;;;;5121097;27;20579;-81
2022/03/26 00:32:34;;;;;;;18.63;9.95;;;;;;;;;;5113266;27;20142;-82
2022/03/26 00:35:01;;;;;;;24.38;10.65;;;;;;;;;;5126030;27;20078;-81
2022/03/26 00:37:27;;;;;;;20.40;10.40;;;;;;;;;;5120220;27;20131;-82
2022/03/26 00:39:56;;;;;;;22.38;11.50;;;;;;;;;;5117840;27;20077;-82
2022/03/26 00:42:23;;;;;;;21.63;11.55;;;;;;;;;;5122903;27;20043;-82
2022/03/26 00:44:49;;;;;;;22.45;11.43;;;;;;;;;;5121877;27;20356;-82
2022/03/26 00:47:16;;;;;;;23.45;10.65;;;;;;;;;;5120727;27;20433;-81
2022/03/26 00:49:42;;;;;;;16.67;9.95;;;;;;;;;;5123582;27;20074;-82
2022/03/26 00:52:09;;;;;;;22.08;10.63;;;;;;;;;;5119599;27;20530;-82
2022/03/26 00:54:36;;;;;;;23.08;11.15;;;;;;;;;;5120239;27;20083;-82
2022/03/26 00:57:04;;;;;;;22.08;11.77;;;;;;;;;;5114668;27;20127;-82
2022/03/26 00:59:31;;;;;;;20.42;10.30;;;;;;;;;;5115205;27;20144;-82
2022/03/26 01:01:58;;;;;;;22.58;11.20;;;;;;;;;;5116240;27;20079;-82
2022/03/26 01:04:24;;;;;;;18.83;9.43;;;;;;;;;;5114815;27;20517;-82
2022/03/26 01:06:51;;;;;;;22.98;11.20;;;;;;;;;;5120744;27;20071;-82
2022/03/26 01:09:17;;;;;;;25.23;11.52;;;;;;;;;;5124062;27;20070;-82
2022/03/26 01:11:44;;;;;;;20.50;10.57;;;;;;;;;;5125080;27;20077;-82
2022/03/26 01:14:12;;;;;;;23.48;11.55;;;;;;;;;;5117342;27;20075;-82
2022/03/26 01:16:38;;;;;;;20.48;10.18;;;;;;;;;;5121019;27;20131;-84
2022/03/26 01:19:05;;;;;;;21.48;11.63;;;;;;;;;;5122419;27;20415;-82
2022/03/26 01:21:32;;;;;;;19.92;10.32;;;;;;;;;;5119247;27;20118;-84
2022/03/26 01:23:58;;;;;;;22.20;11.88;;;;;;;;;;5123003;27;20130;-82
2022/03/26 01:26:25;;;;;;;22.88;10.50;;;;;;;;;;5118487;27;20111;-82
2022/03/26 01:28:52;;;;;;;24.38;11.77;;;;;;;;;;5119837;27;20113;-82
2022/03/26 01:31:22;;;;;;;22.02;12.00;;;;;;;;;;5114767;27;20225;-82
2022/03/26 01:33:49;;;;;;;21.33;10.65;;;;;;;;;;5122737;27;20492;-82
2022/03/26 01:36:16;;;;;;;21.80;11.35;;;;;;;;;;5124152;27;20071;-82
2022/03/26 01:38:43;;;;;;;20.40;10.95;;;;;;;;;;5117676;27;20080;-82
2022/03/26 01:41:10;;;;;;;22.10;10.98;;;;;;;;;;5124767;27;20078;-82
2022/03/26 01:43:36;;;;;;;21.63;11.65;;;;;;;;;;5120056;27;20454;-82
2022/03/26 01:46:03;;;;;;;22.00;10.65;;;;;;;;;;5126651;27;20050;-81
2022/03/26 01:48:31;;;;;;;20.88;10.07;;;;;;;;;;5125574;27;20039;-82
2022/03/26 01:51:14;;;;;;;22.92;12.68;;;;;;;;;;5125271;27;20043;-81
2022/03/26 01:53:41;;;;;;;24.30;12.85;;;;;;;;;;5112344;27;20047;-81
2022/03/26 01:56:08;;;;;;;22.60;11.70;;;;;;;;;;5112380;27;20078;-81
2022/03/26 01:58:34;;;;;;;23.48;11.30;;;;;;;;;;5116425;27;20135;-81
2022/03/26 02:01:01;;;;;;;23.63;11.95;;;;;;;;;;5121363;27;20529;-83
2022/03/26 02:03:27;;;;;;;28.70;14.23;;;;;;;;;;5118029;27;20137;-83
2022/03/26 02:05:56;;;;;;;22.55;11.52;;;;;;;;;;5123747;27;20083;-83
2022/03/26 02:08:22;;;;;;;25.48;11.75;;;;;;;;;;5125282;27;20078;-83
2022/03/26 02:10:49;;;;;;;24.27;12.07;;;;;;;;;;5117325;27;20051;-83
2022/03/26 02:13:16;;;;;;;22.02;11.32;;;;;;;;;;5117910;27;20556;-83
2022/03/26 02:15:44;;;;;;;25.70;12.32;;;;;;;;;;5115910;27;20051;-83
2022/03/26 02:18:10;;;;;;;26.50;12.65;;;;;;;;;;5117654;27;20051;-83
2022/03/26 02:20:39;;;;;;;24.55;12.13;;;;;;;;;;5121909;27;20461;-83
2022/03/26 02:23:05;;;;;;;23.95;12.10;;;;;;;;;;5114311;27;20078;-83
2022/03/26 02:25:32;;;;;;;24.55;11.95;;;;;;;;;;5124094;27;20051;-83
2022/03/26 02:27:58;;;;;;;25.67;11.85;;;;;;;;;;5121494;27;20493;-83
2022/03/26 02:30:25;;;;;;;22.13;11.38;;;;;;;;;;5119094;27;20635;-83
2022/03/26 02:32:52;;;;;;;25.40;12.63;;;;;;;;;;5118310;27;20101;-83
2022/03/26 02:35:18;;;;;;;22.85;12.98;;;;;;;;;;5115870;27;20169;-83
2022/03/26 02:37:46;;;;;;;24.85;11.18;;;;;;;;;;5121503;27;20032;-83
2022/03/26 02:40:13;;;;;;;28.08;13.32;;;;;;;;;;5118492;27;20126;-83
2022/03/26 02:42:40;;;;;;;27.95;13.05;;;;;;;;;;5123618;27;20362;-83
2022/03/26 02:45:08;;;;;;;22.77;11.27;;;;;;;;;;5115013;27;20080;-83
2022/03/26 02:47:35;;;;;;;27.73;12.90;;;;;;;;;;5116175;27;20046;-84
2022/03/26 02:50:01;;;;;;;27.13;13.48;;;;;;;;;;5119203;27;20424;-83
2022/03/26 02:52:28;;;;;;;26.77;13.32;;;;;;;;;;5122258;27;20579;-84
2022/03/26 02:54:56;;;;;;;22.80;11.52;;;;;;;;;;5109765;27;20347;-84
2022/03/26 02:57:22;;;;;;;27.13;12.68;;;;;;;;;;5118182;28;20087;-84
2022/03/26 02:59:49;;;;;;;21.02;10.63;;;;;;;;;;5119123;28;20517;-83
2022/03/26 03:02:16;;;;;;;25.60;13.63;;;;;;;;;;5119097;28;20054;-83
2022/03/26 03:04:42;;;;;;;24.73;12.63;;;;;;;;;;5119683;28;20099;-83
2022/03/26 03:07:09;;;;;;;27.83;13.95;;;;;;;;;;5122977;28;20128;-83
2022/03/26 03:09:36;;;;;;;25.98;12.45;;;;;;;;;;5116923;28;20122;-83
2022/03/26 03:12:04;;;;;;;25.58;11.90;;;;;;;;;;5116255;28;20126;-83
2022/03/26 03:14:31;;;;;;;28.98;13.18;;;;;;;;;;5111734;28;20104;-84
2022/03/26 03:16:58;;;;;;;27.55;12.57;;;;;;;;;;5124947;28;20503;-84
2022/03/26 03:19:24;;;;;;;26.50;12.82;;;;;;;;;;5118592;28;20519;-84
2022/03/26 03:21:51;;;;;;;27.77;12.35;;;;;;;;;;5122352;28;20531;-84
2022/03/26 03:24:17;;;;;;;28.13;13.45;;;;;;;;;;5113209;28;20051;-84
2022/03/26 03:26:44;;;;;;;29.80;13.35;;;;;;;;;;5116805;28;20139;-84
2022/03/26 03:29:12;;;;;;;26.02;12.65;;;;;;;;;;5115311;28;20100;-84
2022/03/26 03:31:44;;;;;;;26.90;13.82;;;;;;;;;;5115900;28;20116;-84
2022/03/26 03:34:11;;;;;;;27.38;12.25;;;;;;;;;;5117699;27;20119;-83
2022/03/26 03:36:38;;;;;;;26.73;13.70;;;;;;;;;;5114788;27;20417;-83
2022/03/26 03:39:04;;;;;;;27.20;13.52;;;;;;;;;;5117768;27;20168;-83
2022/03/26 03:41:31;;;;;;;23.50;12.60;;;;;;;;;;5121289;27;20099;-84
2022/03/26 03:44:02;;;;;;;29.13;12.45;;;;;;;;;;5117225;27;20051;-83
2022/03/26 03:46:30;;;;;;;26.92;12.85;;;;;;;;;;5099372;27;20117;-83
2022/03/26 03:48:57;;;;;;;25.88;13.00;;;;;;;;;;5129047;27;20058;-83
2022/03/26 03:51:23;;;;;;;30.55;14.70;;;;;;;;;;5123135;27;20104;-83
2022/03/26 03:53:50;;;;;;;28.00;12.05;;;;;;;;;;5127251;27;20399;-83
2022/03/26 03:56:16;;;;;;;31.65;14.27;;;;;;;;;;5123775;27;20131;-83
2022/03/26 03:58:43;;;;;;;28.38;14.57;;;;;;;;;;5122677;27;20292;-83
2022/03/26 04:01:09;;;;;;;27.80;13.60;;;;;;;;;;5118489;27;20051;-83
2022/03/26 04:03:37;;;;;;;28.25;14.25;;;;;;;;;;5126306;27;20460;-83
2022/03/26 04:06:05;;;;;;;28.30;13.55;;;;;;;;;;5121471;27;20143;-83
2022/03/26 04:08:32;;;;;;;28.48;13.45;;;;;;;;;;5120232;27;20043;-83
2022/03/26 04:10:58;;;;;;;29.50;14.02;;;;;;;;;;5120364;27;20047;-83
2022/03/26 04:13:25;;;;;;;27.27;13.52;;;;;;;;;;5119363;27;20124;-83
2022/03/26 04:15:51;;;;;;;28.92;12.43;;;;;;;;;;5122416;27;20411;-83
2022/03/26 04:18:18;;;;;;;30.70;14.65;;;;;;;;;;5124589;27;20074;-83
2022/03/26 04:20:46;;;;;;;27.33;13.23;;;;;;;;;;5127872;27;20126;-83
2022/03/26 04:23:13;;;;;;;22.00;11.60;;;;;;;;;;5120150;27;20074;-83
2022/03/26 04:25:39;;;;;;;35.60;13.52;;;;;;;;;;5124230;27;20116;-83
2022/03/26 04:28:12;;;;;;;26.00;13.13;;;;;;;;;;5113585;27;20086;-83
2022/03/26 04:30:39;;;;;;;28.45;12.73;;;;;;;;;;5125950;27;20071;-83
2022/03/26 04:33:06;;;;;;;29.52;12.82;;;;;;;;;;5123892;27;20055;-83
2022/03/26 04:35:33;;;;;;;32.53;13.95;;;;;;;;;;5127669;27;20499;-83
2022/03/26 04:38:01;;;;;;;25.08;12.63;;;;;;;;;;5114396;27;20536;-83
2022/03/26 04:40:28;;;;;;;28.88;13.68;;;;;;;;;;5121709;27;20126;-83
2022/03/26 04:42:55;;;;;;;31.98;15.65;;;;;;;;;;5116191;27;20285;-83
2022/03/26 04:45:23;;;;;;;28.65;13.63;;;;;;;;;;5123515;27;20052;-83
2022/03/26 04:47:49;;;;;;;30.08;15.60;;;;;;;;;;5122303;27;20046;-83
2022/03/26 04:50:16;;;;;;;29.75;14.65;;;;;;;;;;5124895;27;20630;-83
2022/03/26 04:52:43;;;;;;;33.50;12.88;;;;;;;;;;5122359;27;20067;-83
2022/03/26 04:55:12;;;;;;;29.40;14.38;;;;;;;;;;5122441;27;20083;-84
2022/03/26 04:57:40;;;;;;;50.90;16.25;;;;;;;;;;5118914;27;20634;-84
2022/03/26 05:00:08;;;;;;;30.75;14.77;;;;;;;;;;5118987;27;20051;-83
2022/03/26 05:02:36;;;;;;;36.22;15.27;;;;;;;;;;5114707;27;20100;-83
2022/03/26 05:05:03;;;;;;;25.77;12.85;;;;;;;;;;5119390;27;20051;-83
2022/03/26 05:07:49;;;;;;;28.23;14.73;;;;;;;;;;5122349;27;20119;-83
2022/03/26 05:10:19;;;;;;;32.95;14.50;;;;;;;;;;5117393;27;20044;-83
2022/03/26 05:12:47;;;;;;;26.67;13.63;;;;;;;;;;5120599;27;20281;-84
2022/03/26 05:15:14;;;;;;;32.67;14.88;;;;;;;;;;5124991;27;20050;-83
2022/03/26 05:17:41;;;;;;;29.10;13.07;;;;;;;;;;5113814;27;20082;-83
2022/03/26 05:20:09;;;;;;;34.45;14.27;;;;;;;;;;5115976;27;20047;-83
2022/03/26 05:22:37;;;;;;;29.52;13.40;;;;;;;;;;5124220;27;20472;-83
2022/03/26 05:25:04;;;;;;;34.63;14.57;;;;;;;;;;5115855;27;20051;-83
2022/03/26 05:27:32;;;;;;;32.80;16.00;;;;;;;;;;5125149;27;20082;-84
2022/03/26 05:29:59;;;;;;;31.63;14.45;;;;;;;;;;5117331;27;20051;-83
2022/03/26 05:32:26;;;;;;;30.02;14.45;;;;;;;;;;5113802;27;20046;-83
2022/03/26 05:34:52;;;;;;;33.92;14.57;;;;;;;;;;5127145;27;20081;-84
2022/03/26 05:37:19;;;;;;;33.70;13.68;;;;;;;;;;5125268;27;20058;-83
2022/03/26 05:39:47;;;;;;;29.00;13.68;;;;;;;;;;5119622;27;20110;-84
2022/03/26 05:42:14;;;;;;;31.60;14.38;;;;;;;;;;5130503;27;20078;-84
2022/03/26 05:44:42;;;;;;;34.17;15.20;;;;;;;;;;5128542;27;20624;-84
2022/03/26 05:47:09;;;;;;;31.08;15.18;;;;;;;;;;5121453;27;20098;-85
2022/03/26 05:49:36;;;;;;;35.63;16.30;;;;;;;;;;5129088;27;20051;-84
2022/03/26 05:52:03;;;;;;;35.40;16.48;;;;;;;;;;5126903;27;20089;-84
2022/03/26 05:54:30;;;;;;;36.17;15.32;;;;;;;;;;5132706;27;20055;-84
2022/03/26 05:56:57;;;;;;;36.97;16.25;;;;;;;;;;5131220;27;20100;-84
2022/03/26 05:59:26;;;;;;;30.27;13.15;;;;;;;;;;5125339;27;20043;-84
2022/03/26 06:01:54;;;;;;;34.28;14.95;;;;;;;;;;5121266;27;20506;-84
2022/03/26 06:04:23;;;;;;;34.38;15.15;;;;;;;;;;5125816;27;20100;-84
2022/03/26 06:06:49;;;;;;;32.15;13.75;;;;;;;;;;5114385;27;20461;-84
2022/03/26 06:09:16;;;;;;;36.03;15.07;;;;;;;;;;5129229;27;20079;-84
2022/03/26 06:11:43;;;;;;;29.98;13.55;;;;;;;;;;5127605;27;20054;-84
2022/03/26 06:14:10;;;;;;;34.80;16.67;;;;;;;;;;5116834;27;20101;-84
2022/03/26 06:16:36;;;;;;;54.55;22.70;;;;;;;;;;5121205;27;20519;-84
2022/03/26 06:19:04;;;;;;;43.22;20.70;;;;;;;;;;5119570;27;20480;-84
2022/03/26 06:21:33;;;;;;;47.15;21.60;;;;;;;;;;5122331;27;20051;-84
2022/03/26 06:24:00;;;;;;;40.95;18.42;;;;;;;;;;5129290;27;20078;-84
2022/03/26 06:26:27;;;;;;;35.83;16.40;;;;;;;;;;5119288;27;20544;-84
2022/03/26 06:28:54;;;;;;;31.27;15.60;;;;;;;;;;5125416;27;20050;-84
2022/03/26 06:31:23;;;;;;;32.60;15.82;;;;;;;;;;5133759;27;20047;-84
2022/03/26 06:33:56;;;;;;;35.63;15.43;;;;;;;;;;5134934;27;20039;-84
2022/03/26 06:36:39;;;;;;;32.33;14.65;;;;;;;;;;5133159;27;20096;-84
2022/03/26 06:39:08;;;;;;;30.08;16.13;;;;;;;;;;5111882;28;20172;-84
2022/03/26 06:41:45;;;;;;;37.20;18.05;;;;;;;;;;5128392;27;20047;-83
2022/03/26 06:44:12;;;;;;;41.65;23.42;;;;;;;;;;5133319;27;20051;-84
2022/03/26 06:46:41;;;;;;;46.75;24.45;;;;;;;;;;5136965;27;20093;-84
2022/03/26 06:49:08;;;;;;;48.80;26.15;;;;;;;;;;5132273;27;20043;-84
2022/03/26 06:51:37;;;;;;;39.35;19.27;;;;;;;;;;5129534;27;20068;-84
2022/03/26 06:54:04;;;;;;;39.72;18.50;;;;;;;;;;5122162;27;20044;-84
2022/03/26 06:56:30;;;;;;;36.83;20.33;;;;;;;;;;5112448;28;20447;-84
2022/03/26 06:58:57;;;;;;;37.85;19.10;;;;;;;;;;5130068;28;20051;-84
2022/03/26 07:01:23;;;;;;;39.33;18.20;;;;;;;;;;5124039;28;20046;-84
2022/03/26 07:03:50;;;;;;;30.25;15.95;;;;;;;;;;5129138;28;20074;-84
2022/03/26 07:06:19;;;;;;;34.65;15.65;;;;;;;;;;5128341;28;20043;-84
2022/03/26 07:08:47;;;;;;;31.67;16.50;;;;;;;;;;5133253;27;20084;-84
2022/03/26 07:11:15;;;;;;;39.22;18.70;;;;;;;;;;5133921;27;20495;-85
2022/03/26 07:13:41;;;;;;;35.75;17.40;;;;;;;;;;5124170;27;20138;-84
2022/03/26 07:16:08;;;;;;;31.92;15.40;;;;;;;;;;5125165;27;20092;-84
2022/03/26 07:18:35;;;;;;;35.85;16.45;;;;;;;;;;5122038;27;20083;-84
2022/03/26 07:21:01;;;;;;;37.38;18.13;;;;;;;;;;5132023;27;20048;-85
2022/03/26 07:23:28;;;;;;;41.17;17.42;;;;;;;;;;5124368;27;20104;-84
2022/03/26 07:25:56;;;;;;;36.35;16.60;;;;;;;;;;5119760;27;20217;-84
2022/03/26 07:28:23;;;;;;;35.92;15.98;;;;;;;;;;5125819;27;20039;-84
2022/03/26 07:30:50;;;;;;;33.05;16.35;;;;;;;;;;5127400;27;20522;-84
2022/03/26 07:33:16;;;;;;;38.42;17.65;;;;;;;;;;5122699;27;20058;-84
2022/03/26 07:35:50;;;;;;;39.40;16.95;;;;;;;;;;5123958;27;20540;-84
2022/03/26 07:38:16;;;;;;;32.78;16.17;;;;;;;;;;5119800;27;20496;-84
2022/03/26 07:40:43;;;;;;;36.08;17.65;;;;;;;;;;5126694;27;20456;-84
2022/03/26 07:43:11;;;;;;;33.72;17.05;;;;;;;;;;5125054;27;20391;-84
2022/03/26 07:45:38;;;;;;;36.08;17.70;;;;;;;;;;5124577;27;20118;-84
2022/03/26 07:48:05;;;;;;;36.88;18.23;;;;;;;;;;5122811;27;20055;-85
2022/03/26 07:50:32;;;;;;;32.80;17.38;;;;;;;;;;5127075;27;20096;-84
2022/03/26 07:52:59;;;;;;;38.83;19.77;;;;;;;;;;5125058;27;20098;-85
2022/03/26 07:55:25;;;;;;;42.00;20.10;;;;;;;;;;5119878;27;20049;-85
2022/03/26 07:57:52;;;;;;;31.77;18.33;;;;;;;;;;5122892;27;20147;-85
2022/03/26 08:00:20;;;;;;;42.67;19.67;;;;;;;;;;5121624;27;20163;-84
2022/03/26 08:02:47;;;;;;;36.55;18.75;;;;;;;;;;5123044;27;20043;-84
2022/03/26 08:05:14;;;;;;;35.22;19.00;;;;;;;;;;5123390;27;20054;-85
2022/03/26 08:07:40;;;;;;;37.60;18.38;;;;;;;;;;5124125;27;20539;-85
2022/03/26 08:10:07;;;;;;;40.08;19.45;;;;;;;;;;5124542;27;20046;-85
2022/03/26 08:12:34;;;;;;;35.78;17.80;;;;;;;;;;5119987;27;20096;-85
2022/03/26 08:15:01;;;;;;;38.88;20.83;;;;;;;;;;5119085;27;20142;-84
2022/03/26 08:17:30;;;;;;;35.00;18.13;;;;;;;;;;5120771;27;20093;-84
2022/03/26 08:19:57;;;;;;;37.85;20.20;;;;;;;;;;5120980;27;20087;-85
2022/03/26 08:22:25;;;;;;;38.13;19.10;;;;;;;;;;5118261;27;20575;-85
2022/03/26 08:24:52;;;;;;;39.90;20.15;;;;;;;;;;5121946;27;20051;-86
2022/03/26 08:27:19;;;;;;;37.42;20.77;;;;;;;;;;5124426;27;20051;-86
2022/03/26 08:29:46;;;;;;;36.45;19.83;;;;;;;;;;5129625;27;20043;-84
2022/03/26 08:32:13;;;;;;;37.70;19.45;;;;;;;;;;5116964;27;20204;-85
2022/03/26 08:34:41;;;;;;;34.67;19.25;;;;;;;;;;5119854;27;20075;-84
2022/03/26 08:37:08;;;;;;;33.40;19.38;;;;;;;;;;5125613;27;20403;-84
2022/03/26 08:39:34;;;;;;;38.95;19.80;;;;;;;;;;5119904;27;20043;-84
2022/03/26 08:42:01;;;;;;;40.03;20.52;;;;;;;;;;5119928;27;20462;-84
2022/03/26 08:44:28;;;;;;;35.10;18.52;;;;;;;;;;5122674;27;20040;-84
2022/03/26 08:46:54;;;;;;;33.80;19.17;;;;;;;;;;5120251;27;20066;-86
2022/03/26 08:49:21;;;;;;;40.97;20.40;;;;;;;;;;5126937;27;20561;-85
2022/03/26 08:51:49;;;;;;;37.92;20.17;;;;;;;;;;5117172;27;20143;-85
2022/03/26 08:54:15;;;;;;;39.83;20.38;;;;;;;;;;5118304;27;20117;-85
2022/03/26 08:56:42;;;;;;;36.47;18.58;;;;;;;;;;5112998;27;20044;-86
2022/03/26 08:59:08;;;;;;;36.65;18.92;;;;;;;;;;5116143;27;20079;-85
2022/03/26 09:01:35;;;;;;;37.28;18.98;;;;;;;;;;5116835;27;20146;-86
2022/03/26 09:04:02;;;;;;;37.17;20.17;;;;;;;;;;5118852;27;20042;-84
2022/03/26 09:06:29;;;;;;;36.15;19.75;;;;;;;;;;5118718;27;20063;-85
2022/03/26 09:08:58;;;;;;;40.40;20.70;;;;;;;;;;5119673;27;20571;-84
2022/03/26 09:11:25;;;;;;;33.13;18.77;;;;;;;;;;5117178;27;20140;-84
2022/03/26 09:13:51;;;;;;;36.05;19.25;;;;;;;;;;5121436;27;20055;-85
2022/03/26 09:16:18;;;;;;;38.25;20.00;;;;;;;;;;5121872;27;20044;-84
2022/03/26 09:18:45;;;;;;;32.78;18.63;;;;;;;;;;5122200;27;20714;-85
2022/03/26 09:21:11;;;;;;;36.25;20.48;;;;;;;;;;5121010;27;20131;-86
2022/03/26 09:23:38;;;;;;;36.33;19.45;;;;;;;;;;5118427;27;20816;-85
2022/03/26 09:26:06;;;;;;;35.17;19.67;;;;;;;;;;5117514;27;20384;-84
2022/03/26 09:28:32;;;;;;;32.00;19.77;;;;;;;;;;5123374;27;20035;-86
2022/03/26 09:30:59;;;;;;;36.38;18.83;;;;;;;;;;5122889;27;20078;-84
2022/03/26 09:33:25;;;;;;;33.72;19.25;;;;;;;;;;5111237;27;20086;-84
2022/03/26 09:35:52;;;;;;;38.33;20.15;;;;;;;;;;5123968;27;20131;-85
2022/03/26 09:38:18;;;;;;;37.25;18.98;;;;;;;;;;5119394;27;20071;-87
2022/03/26 09:40:45;;;;;;;34.50;19.98;;;;;;;;;;5123880;27;20287;-85
2022/03/26 09:43:14;;;;;;;34.38;19.35;;;;;;;;;;5116514;27;20063;-86
2022/03/26 09:45:41;;;;;;;38.03;19.08;;;;;;;;;;5117740;27;20071;-86
2022/03/26 09:48:08;;;;;;;34.85;19.95;;;;;;;;;;5120241;27;20452;-85
2022/03/26 09:50:35;;;;;;;37.38;19.70;;;;;;;;;;5117195;27;20464;-87
2022/03/26 09:53:02;;;;;;;34.80;19.83;;;;;;;;;;5113897;27;20058;-86
2022/03/26 09:55:29;;;;;;;36.10;20.60;;;;;;;;;;5113809;27;20090;-86
2022/03/26 09:57:56;;;;;;;37.00;19.95;;;;;;;;;;5122749;27;20055;-88
2022/03/26 10:00:24;;;;;;;36.13;20.05;;;;;;;;;;5120807;27;20063;-86
2022/03/26 10:02:51;;;;;;;32.92;19.55;;;;;;;;;;5114197;27;20126;-86
2022/03/26 10:05:20;;;;;;;35.95;19.40;;;;;;;;;;5119684;27;20039;-86
2022/03/26 10:07:48;;;;;;;35.90;19.55;;;;;;;;;;5115658;27;20608;-86
2022/03/26 10:10:23;;;;;;;41.10;20.65;;;;;;;;;;5117680;27;20055;-85
2022/03/26 10:12:51;;;;;;;33.78;19.33;;;;;;;;;;5118861;27;20066;-87
2022/03/26 10:15:18;;;;;;;33.05;18.67;;;;;;;;;;5118846;27;20071;-85
2022/03/26 10:17:47;;;;;;;36.75;20.80;;;;;;;;;;5114856;27;20089;-85
2022/03/26 10:20:15;;;;;;;37.28;19.98;;;;;;;;;;5121411;27;20047;-85
2022/03/26 10:22:43;;;;;;;31.55;19.70;;;;;;;;;;5126593;27;20047;-85
2022/03/26 10:25:12;;;;;;;34.30;20.20;;;;;;;;;;5123547;27;20126;-85
2022/03/26 10:27:40;;;;;;;33.78;19.20;;;;;;;;;;5117074;27;20050;-86
2022/03/26 10:30:07;;;;;;;37.00;21.08;;;;;;;;;;5119815;27;20111;-87
2022/03/26 10:32:45;;;;;;;35.22;19.10;;;;;;;;;;5116798;27;20130;-86
2022/03/26 10:35:16;;;;;;;37.85;20.65;;;;;;;;;;5116148;27;20145;-85
2022/03/26 10:37:58;;;;;;;33.80;18.38;;;;;;;;;;5115954;27;20147;-86
2022/03/26 10:40:30;;;;;;;33.60;19.73;;;;;;;;;;5112970;27;20464;-86
2022/03/26 10:43:02;;;;;;;38.00;20.92;;;;;;;;;;5116606;27;20100;-86
2022/03/26 10:45:30;;;;;;;30.63;19.38;;;;;;;;;;5120334;27;20047;-86
2022/03/26 10:47:58;;;;;;;37.17;21.05;;;;;;;;;;5120654;27;20556;-85
2022/03/26 10:50:27;;;;;;;33.25;19.23;;;;;;;;;;5129697;27;20055;-85
2022/03/26 10:52:55;;;;;;;36.40;20.77;;;;;;;;;;5119489;27;20039;-86
2022/03/26 10:55:35;;;;;;;35.40;19.57;;;;;;;;;;5114603;27;20055;-85
2022/03/26 10:58:09;;;;;;;32.38;20.08;;;;;;;;;;5122975;27;20039;-87
2022/03/26 11:00:36;;;;;;;33.95;20.30;;;;;;;;;;5123382;28;20131;-88
2022/03/26 11:03:03;;;;;;;37.90;20.90;;;;;;;;;;5125114;28;20806;-85
2022/03/26 11:05:31;;;;;;;36.55;20.25;;;;;;;;;;5118081;28;20133;-85
2022/03/26 11:07:58;;;;;;;34.60;20.20;;;;;;;;;;5117433;28;20667;-85
2022/03/26 11:10:25;;;;;;;36.53;19.02;;;;;;;;;;5116602;28;20499;-87
2022/03/26 11:12:52;;;;;;;34.53;19.98;;;;;;;;;;5119288;28;20062;-86
2022/03/26 11:15:22;;;;;;;34.40;19.33;;;;;;;;;;5118535;28;20050;-86
2022/03/26 11:17:59;;;;;;;31.77;20.73;;;;;;;;;;5113499;28;20079;-86
2022/03/26 11:20:48;;;;;;;31.75;19.08;;;;;;;;;;5113770;28;20342;-86
2022/03/26 11:23:24;;;;;;;30.73;18.90;;;;;;;;;;5121391;28;20074;-86
2022/03/26 11:26:03;;;;;;;;;;;;;;;;;;5115738;28;20118;-85
2022/03/26 11:28:51;;;;;;;36.17;20.13;;;;;;;;;;5116900;28;20414;-85
2022/03/26 11:31:23;;;;;;;31.73;21.27;;;;;;;;;;5118896;28;20062;-86
2022/03/26 11:33:50;;;;;;;31.98;19.20;;;;;;;;;;5114729;28;20240;-86
2022/03/26 11:36:19;;;;;;;33.03;19.17;;;;;;;;;;5114615;28;20051;-86
2022/03/26 11:38:55;;;;;;;28.60;19.20;;;;;;;;;;5112212;28;20465;-86
2022/03/26 11:41:31;;;;;;;31.67;19.42;;;;;;;;;;5120970;28;20138;-87
2022/03/26 11:44:03;;;;;;;34.85;21.23;;;;;;;;;;5120672;28;20535;-86
2022/03/26 11:52:17;;;;;;;31.58;20.08;;;;;;;;;;5122467;28;20111;-86
2022/03/26 11:54:43;;;;;;;31.55;19.58;;;;;;;;;;5115943;28;20082;-86
2022/03/26 11:57:18;;;;;;;31.02;19.65;;;;;;;;;;5120791;27;20043;-87
2022/03/26 11:59:48;;;;;;;29.67;20.17;;;;;;;;;;5120011;27;20457;-86
2022/03/26 12:02:24;;;;;;;30.55;18.52;;;;;;;;;;5126331;27;20062;-86
2022/03/26 12:04:51;;;;;;;;;;;;;;;;;;5127074;27;20058;-87
2022/03/26 12:07:21;;;;;;;32.67;19.63;;;;;;;;;;5129593;27;20352;-86
2022/03/26 12:09:52;;;;;;;31.48;18.58;;;;;;;;;;5119924;27;20075;-86
2022/03/26 12:12:19;;;;;;;28.63;18.27;;;;;;;;;;5123888;27;20090;-86
2022/03/26 12:15:33;;;;;;;32.92;19.20;;;;;;;;;;5118398;27;20484;-86
2022/03/26 12:18:11;;;;;;;30.23;19.02;;;;;;;;;;5120764;27;20052;-86
2022/03/26 12:20:39;;;;;;;28.85;18.15;;;;;;;;;;5124459;27;20488;-86
2022/03/26 12:23:10;;;;;;;29.98;17.75;;;;;;;;;;5125235;27;20051;-87
2022/03/26 12:25:51;;;;;;;31.83;18.65;;;;;;;;;;5115186;27;20059;-86
2022/03/26 12:28:20;;;;;;;28.70;18.23;;;;;;;;;;5118256;27;20078;-86
2022/03/26 12:30:49;;;;;;;28.13;17.33;;;;;;;;;;5120307;27;20051;-86
2022/03/26 12:33:16;;;;;;;26.15;17.02;;;;;;;;;;5118714;27;20043;-86
2022/03/26 12:35:44;;;;;;;29.80;17.75;;;;;;;;;;5119764;27;20075;-86
2022/03/26 12:38:12;;;;;;;28.08;17.67;;;;;;;;;;5124562;27;20522;-86
2022/03/26 12:40:39;;;;;;;30.17;17.65;;;;;;;;;;5120047;27;20112;-86
2022/03/26 12:43:09;;;;;;;27.08;16.15;;;;;;;;;;5120919;27;20104;-86
2022/03/26 12:45:35;;;;;;;27.52;17.13;;;;;;;;;;5122511;27;20078;-86
2022/03/26 12:48:02;;;;;;;30.23;17.30;;;;;;;;;;5117067;27;20480;-86
2022/03/26 12:50:29;;;;;;;27.77;17.30;;;;;;;;;;5123853;27;20138;-86
2022/03/26 12:52:55;;;;;;;23.52;15.18;;;;;;;;;;5119566;27;20151;-86
2022/03/26 12:55:23;;;;;;;25.60;15.30;;;;;;;;;;5117436;27;20397;-86
2022/03/26 13:00:34;;;;;;;29.55;16.65;;;;;;;;;;5118468;27;20046;-86
2022/03/26 13:03:02;;;;;;;26.15;16.25;;;;;;;;;;5116051;27;20138;-86
2022/03/26 13:05:30;;;;;;;24.95;15.60;;;;;;;;;;5121729;27;20316;-86
2022/03/26 13:07:57;;;;;;;27.00;16.25;;;;;;;;;;5116692;27;20149;-86
2022/03/26 13:10:37;;;;;;;27.23;16.10;;;;;;;;;;5112141;27;20093;-85
2022/03/26 13:13:06;;;;;;;28.15;15.77;;;;;;;;;;5116591;27;20140;-86
2022/03/26 13:15:33;;;;;;;23.40;13.90;;;;;;;;;;5126642;27;20046;-86
2022/03/26 13:18:02;;;;;;;29.95;16.90;;;;;;;;;;5121997;27;20101;-86
2022/03/26 13:20:32;;;;;;;29.83;17.73;;;;;;;;;;5113659;27;20055;-85
2022/03/26 13:23:01;;;;;;;28.23;16.92;;;;;;;;;;5107679;27;20051;-86
2022/03/26 13:25:35;;;;;;;25.90;17.33;;;;;;;;;;5112934;27;20145;-86
2022/03/26 13:28:19;;;;;;;26.55;16.70;;;;;;;;;;5116562;27;20055;-86
2022/03/26 13:30:46;;;;;;;24.95;15.88;;;;;;;;;;5116588;27;20059;-86
2022/03/26 13:33:17;;;;;;;28.73;17.98;;;;;;;;;;5115130;27;20135;-86
2022/03/26 13:35:47;;;;;;;24.95;17.20;;;;;;;;;;5114149;27;20089;-85
2022/03/26 13:38:14;;;;;;;28.23;15.60;;;;;;;;;;5117835;27;20075;-86
2022/03/26 13:40:42;;;;;;;26.02;17.05;;;;;;;;;;5115393;27;20141;-86
2022/03/26 13:43:10;;;;;;;24.85;15.57;;;;;;;;;;5119674;27;20203;-86
2022/03/26 13:45:38;;;;;;;27.48;17.38;;;;;;;;;;5116846;27;20051;-86
2022/03/26 13:48:05;;;;;;;26.05;15.65;;;;;;;;;;5113288;27;20139;-86
2022/03/26 13:50:33;;;;;;;25.40;16.83;;;;;;;;;;5115273;27;20497;-86
2022/03/26 13:53:00;;;;;;;28.52;15.90;;;;;;;;;;5116387;27;20051;-86
2022/03/26 13:55:29;;;;;;;28.23;17.20;;;;;;;;;;5117762;27;20051;-86
2022/03/26 13:57:58;;;;;;;25.08;15.45;;;;;;;;;;5116776;27;20536;-86
2022/03/26 14:00:27;;;;;;;25.05;15.30;;;;;;;;;;5114576;27;20148;-86
2022/03/26 14:02:54;;;;;;;27.15;14.50;;;;;;;;;;5114617;27;20039;-86
2022/03/26 14:05:26;;;;;;;28.83;15.30;;;;;;;;;;5116475;27;20049;-86
2022/03/26 14:07:54;;;;;;;24.75;14.45;;;;;;;;;;5114154;27;20267;-86
2022/03/26 14:10:30;;;;;;;25.40;15.68;;;;;;;;;;5118187;27;20490;-86
2022/03/26 14:12:59;;;;;;;26.05;16.15;;;;;;;;;;5117244;27;20062;-86
2022/03/26 14:15:27;;;;;;;24.30;14.18;;;;;;;;;;5116331;27;20051;-86
2022/03/26 14:17:54;;;;;;;23.83;14.60;;;;;;;;;;5115385;27;20044;-86
2022/03/26 14:20:20;;;;;;;25.90;15.27;;;;;;;;;;5115482;27;20115;-83
2022/03/26 14:22:47;;;;;;;23.30;14.80;;;;;;;;;;5118964;27;20105;-85
2022/03/26 14:25:14;;;;;;;25.60;15.60;;;;;;;;;;5117345;27;20050;-86
2022/03/26 14:27:41;;;;;;;22.65;15.02;;;;;;;;;;5114505;27;20599;-86
2022/03/26 14:30:09;;;;;;;21.60;15.48;;;;;;;;;;5115782;27;20043;-86
2022/03/26 14:32:36;;;;;;;21.60;15.13;;;;;;;;;;5120019;27;20051;-87